createdAt,value
2022-12-18T00:02:04.574Z,102765.22
2022-12-18T00:04:33.151Z,102758.28
2022-12-18T00:07:01.304Z,102760.44
2022-12-18T00:09:31.179Z,102755.31
2022-12-18T00:14:43.858Z,102749.13
2022-12-18T00:17:11.945Z,102749.06
2022-12-18T00:19:39.940Z,102750.63
2022-12-18T00:22:08.176Z,102749.50
2022-12-18T00:24:36.614Z,102759.94
2022-12-18T00:27:04.947Z,102760.25
2022-12-18T00:29:34.515Z,102756.41
2022-12-18T00:32:02.830Z,102744.25
2022-12-18T00:34:31.024Z,102742.34
2022-12-18T00:36:59.043Z,102731.88
2022-12-18T00:39:27.268Z,102732.47
2022-12-18T00:42:12.530Z,102723.88
2022-12-18T00:44:42.726Z,102734.13
2022-12-18T00:47:10.739Z,102736.66
2022-12-18T00:49:38.727Z,102732.47
2022-12-18T00:52:06.967Z,102734.84
2022-12-18T00:54:35.014Z,102738.28
2022-12-18T00:57:03.700Z,102745.09
2022-12-18T00:59:32.131Z,102750.06
2022-12-18T01:02:01.677Z,102747.63
2022-12-18T01:04:29.847Z,102755.19
2022-12-18T01:07:00.519Z,102744.00
2022-12-18T01:09:28.903Z,102739.41
2022-12-18T01:11:59.964Z,102749.13
2022-12-18T01:14:28.043Z,102746.50
2022-12-18T01:16:56.121Z,102742.16
2022-12-18T01:19:25.617Z,102730.66
2022-12-18T01:21:53.690Z,102735.63
2022-12-18T01:24:21.973Z,102728.94
2022-12-18T01:26:49.998Z,102717.69
2022-12-18T01:29:18.025Z,102723.25
2022-12-18T01:31:46.237Z,102716.28
2022-12-18T01:34:14.335Z,102716.75
2022-12-18T01:36:43.777Z,102721.22
2022-12-18T01:39:14.486Z,102730.03
2022-12-18T01:42:00.801Z,102730.13
2022-12-18T01:45:02.038Z,102737.38
2022-12-18T01:47:35.561Z,102745.63
2022-12-18T01:50:06.650Z,102743.81
2022-12-18T01:52:37.989Z,102747.59
2022-12-18T01:55:08.919Z,102745.75
2022-12-18T01:57:37.502Z,102733.72
2022-12-18T02:00:10.003Z,102732.88
2022-12-18T02:02:38.242Z,102732.72
2022-12-18T02:05:08.082Z,102735.09
2022-12-18T02:07:47.096Z,102744.78
2022-12-18T02:10:21.965Z,102745.34
2022-12-18T02:12:57.343Z,102746.25
2022-12-18T02:15:34.297Z,102747.94
2022-12-18T02:18:07.931Z,102737.56
2022-12-18T02:20:42.100Z,102745.59
2022-12-18T02:23:26.530Z,102736.84
2022-12-18T02:26:09.733Z,102739.31
2022-12-18T02:28:44.293Z,102739.94
2022-12-18T02:31:16.438Z,102737.09
2022-12-18T02:33:46.318Z,102739.59
2022-12-18T02:36:16.867Z,102735.53
2022-12-18T02:38:46.770Z,102736.19
2022-12-18T02:41:18.753Z,102733.56
2022-12-18T02:43:52.675Z,102730.06
2022-12-18T02:46:39.853Z,102736.94
2022-12-18T02:49:18.900Z,102731.81
2022-12-18T02:51:54.931Z,102732.34
2022-12-18T02:54:44.764Z,102731.53
2022-12-18T02:57:19.353Z,102731.25
2022-12-18T02:59:55.503Z,102730.38
2022-12-18T03:02:29.173Z,102728.53
2022-12-18T03:05:03.200Z,102732.88
2022-12-18T03:07:39.200Z,102725.91
2022-12-18T03:10:14.046Z,102727.78
2022-12-18T03:12:48.867Z,102726.72
2022-12-18T03:15:22.818Z,102723.97
2022-12-18T03:17:57.323Z,102724.13
2022-12-18T03:20:31.393Z,102721.22
2022-12-18T03:23:06.303Z,102714.25
2022-12-18T03:25:36.908Z,102713.59
2022-12-18T03:28:10.507Z,102719.41
2022-12-18T03:30:42.631Z,102716.09
2022-12-18T03:33:12.785Z,102706.63
2022-12-18T03:35:43.910Z,102704.91
2022-12-18T03:38:12.869Z,102702.53
2022-12-18T03:40:52.852Z,102696.28
2022-12-18T03:43:33.586Z,102698.84
2022-12-18T03:46:09.329Z,102688.50
2022-12-18T03:48:43.957Z,102681.34
2022-12-18T03:51:17.358Z,102692.22
2022-12-18T03:53:53.766Z,102689.75
2022-12-18T03:56:24.807Z,102685.75
2022-12-18T03:58:55.876Z,102688.50
2022-12-18T04:01:31.528Z,102688.97
2022-12-18T04:04:02.746Z,102689.91
2022-12-18T04:06:31.961Z,102686.59
2022-12-18T04:09:01.163Z,102677.66
2022-12-18T04:11:29.359Z,102680.72
2022-12-18T04:13:59.617Z,102688.31
2022-12-18T04:16:28.628Z,102681.41
2022-12-18T04:18:56.898Z,102682.78
2022-12-18T04:21:24.987Z,102683.03
2022-12-18T04:23:53.186Z,102677.88
2022-12-18T04:26:21.402Z,102675.25
2022-12-18T04:28:49.500Z,102676.16
2022-12-18T04:31:19.002Z,102665.88
2022-12-18T04:33:47.138Z,102666.47
2022-12-18T04:36:15.377Z,102656.28
2022-12-18T04:38:43.351Z,102661.25
2022-12-18T04:41:13.623Z,102664.19
2022-12-18T04:43:41.926Z,102658.06
2022-12-18T04:46:10.983Z,102658.91
2022-12-18T04:48:40.630Z,102664.84
2022-12-18T04:51:09.256Z,102664.13
2022-12-18T04:53:37.709Z,102666.63
2022-12-18T04:56:08.364Z,102671.75
2022-12-18T04:58:36.691Z,102670.00
2022-12-18T05:01:05.369Z,102669.19
2022-12-18T05:03:33.906Z,102663.91
2022-12-18T05:06:03.923Z,102662.16
2022-12-18T05:08:32.397Z,102660.09
2022-12-18T05:11:01.991Z,102664.31
2022-12-18T05:13:30.306Z,102672.03
2022-12-18T05:15:58.649Z,102681.31
2022-12-18T05:18:29.934Z,102679.50
2022-12-18T05:20:58.265Z,102690.59
2022-12-18T05:23:28.756Z,102694.31
2022-12-18T05:25:59.422Z,102693.25
2022-12-18T05:28:30.436Z,102710.47
2022-12-18T05:31:00.102Z,102711.06
2022-12-18T05:33:30.776Z,102715.38
2022-12-18T05:36:00.284Z,102728.03
2022-12-18T05:38:31.521Z,102721.66
2022-12-18T05:41:00.278Z,102739.66
2022-12-18T05:43:29.938Z,102731.09
2022-12-18T05:45:58.607Z,102729.59
2022-12-18T05:48:26.753Z,102729.28
2022-12-18T05:50:54.912Z,102727.41
2022-12-18T05:53:23.263Z,102734.28
2022-12-18T05:55:52.766Z,102719.09
2022-12-18T05:58:20.874Z,102705.16
2022-12-18T06:00:49.227Z,102703.28
2022-12-18T06:03:17.328Z,102702.44
2022-12-18T06:05:47.176Z,102695.94
2022-12-18T06:08:15.754Z,102687.41
2022-12-18T06:10:44.282Z,102677.34
2022-12-18T06:13:13.733Z,102674.84
2022-12-18T06:15:41.776Z,102678.63
2022-12-18T06:18:12.786Z,102665.31
2022-12-18T06:20:42.437Z,102669.63
2022-12-18T06:23:10.803Z,102673.03
2022-12-18T06:25:40.510Z,102670.38
2022-12-18T06:28:08.633Z,102671.16
2022-12-18T06:30:38.066Z,102677.03
2022-12-18T06:33:06.204Z,102667.75
2022-12-18T06:35:34.583Z,102658.22
2022-12-18T06:38:03.595Z,102654.16
2022-12-18T06:40:31.925Z,102656.59
2022-12-18T06:43:00.010Z,102654.22
2022-12-18T06:45:28.601Z,102656.59
2022-12-18T06:48:00.268Z,102654.91
2022-12-18T06:50:28.769Z,102645.38
2022-12-18T06:52:56.932Z,102645.34
2022-12-18T06:55:24.987Z,102641.03
2022-12-18T06:57:53.466Z,102638.47
2022-12-18T07:00:21.586Z,102634.28
2022-12-18T07:02:52.588Z,102633.53
2022-12-18T07:05:22.059Z,102628.41
2022-12-18T07:07:50.239Z,102619.13
2022-12-18T07:10:18.512Z,102624.09
2022-12-18T07:12:49.276Z,102627.56
2022-12-18T07:15:17.714Z,102625.84
2022-12-18T07:17:45.770Z,102623.50
2022-12-18T07:20:13.820Z,102627.84
2022-12-18T07:22:45.512Z,102629.56
2022-12-18T07:25:13.603Z,102636.69
2022-12-18T07:27:41.670Z,102631.56
2022-12-18T07:30:11.938Z,102639.44
2022-12-18T07:32:40.010Z,102628.47
2022-12-18T07:35:08.717Z,102626.78
2022-12-18T07:37:36.749Z,102626.00
2022-12-18T07:40:07.299Z,102629.47
2022-12-18T07:42:35.927Z,102618.53
2022-12-18T07:45:05.145Z,102610.81
2022-12-18T07:47:33.215Z,102610.81
2022-12-18T07:50:01.305Z,102608.31
2022-12-18T07:52:29.379Z,102604.09
2022-12-18T07:54:57.690Z,102593.34
2022-12-18T07:57:49.579Z,102588.44
2022-12-18T08:00:17.330Z,102584.31
2022-12-18T08:02:46.091Z,102588.66
2022-12-18T08:05:14.446Z,102587.06
2022-12-18T08:07:42.536Z,102581.94
2022-12-18T08:10:11.187Z,102581.19
2022-12-18T08:12:40.741Z,102579.56
2022-12-18T08:15:09.922Z,102577.16
2022-12-18T08:17:37.994Z,102575.56
2022-12-18T08:20:06.470Z,102568.84
2022-12-18T08:22:36.393Z,102572.44
2022-12-18T08:25:04.849Z,102561.59
2022-12-18T08:27:33.459Z,102571.22
2022-12-18T08:30:04.334Z,102577.44
2022-12-18T08:32:34.208Z,102570.81
2022-12-18T08:35:02.288Z,102567.63
2022-12-18T08:37:30.400Z,102562.81
2022-12-18T08:39:58.460Z,102560.63
2022-12-18T08:42:44.239Z,102560.09
2022-12-18T08:45:13.908Z,102565.56
2022-12-18T08:47:41.965Z,102572.59
2022-12-18T08:50:12.990Z,102572.88
2022-12-18T08:52:41.123Z,102569.69
2022-12-18T08:55:10.784Z,102571.81
2022-12-18T08:57:39.017Z,102567.81
2022-12-18T09:00:08.639Z,102565.56
2022-12-18T09:02:38.133Z,102562.34
2022-12-18T09:05:07.186Z,102555.63
2022-12-18T09:07:35.396Z,102562.84
2022-12-18T09:10:03.492Z,102563.72
2022-12-18T09:12:31.539Z,102566.59
2022-12-18T09:14:59.730Z,102562.56
2022-12-18T09:17:28.033Z,102564.63
2022-12-18T09:20:00.137Z,102552.09
2022-12-18T09:22:28.368Z,102559.28
2022-12-18T09:24:56.540Z,102555.00
2022-12-18T09:27:24.682Z,102551.28
2022-12-18T09:29:52.754Z,102545.38
2022-12-18T09:32:22.584Z,102551.38
2022-12-18T09:34:50.823Z,102554.38
2022-12-18T09:37:20.281Z,102554.22
2022-12-18T09:39:48.478Z,102556.78
2022-12-18T09:42:22.552Z,102552.09
2022-12-18T09:44:52.953Z,102545.31
2022-12-18T09:47:26.454Z,102554.72
2022-12-18T09:49:58.884Z,102549.84
2022-12-18T09:52:32.696Z,102541.31
2022-12-18T09:55:05.611Z,102539.69
2022-12-18T09:57:35.721Z,102534.88
2022-12-18T10:00:16.575Z,102534.06
2022-12-18T10:02:44.839Z,102530.75
2022-12-18T10:05:16.363Z,102524.78
2022-12-18T10:07:58.659Z,102513.69
2022-12-18T10:10:38.825Z,102512.09
2022-12-18T10:13:23.659Z,102513.78
2022-12-18T10:16:02.445Z,102516.50
2022-12-18T10:18:49.731Z,102521.69
2022-12-18T10:21:21.199Z,102518.44
2022-12-18T10:24:02.546Z,102510.78
2022-12-18T10:26:30.681Z,102504.81
2022-12-18T10:29:05.318Z,102495.53
2022-12-18T10:31:33.845Z,102492.16
2022-12-18T10:34:02.012Z,102483.69
2022-12-18T10:36:30.797Z,102488.03
2022-12-18T10:39:17.099Z,102476.13
2022-12-18T10:41:47.674Z,102472.75
2022-12-18T10:44:20.147Z,102472.91
2022-12-18T10:46:50.155Z,102472.97
2022-12-18T10:49:24.357Z,102476.47
2022-12-18T10:51:53.754Z,102479.13
2022-12-18T10:54:25.960Z,102466.28
2022-12-18T10:56:54.063Z,102463.84
2022-12-18T10:59:22.171Z,102451.91
2022-12-18T11:01:53.120Z,102440.81
2022-12-18T11:04:23.981Z,102441.72
2022-12-18T11:06:58.392Z,102447.81
2022-12-18T11:09:29.349Z,102447.88
2022-12-18T11:12:00.343Z,102450.56
2022-12-18T11:14:31.170Z,102448.00
2022-12-18T11:19:56.620Z,102440.34
2022-12-18T11:22:28.902Z,102437.75
2022-12-18T11:27:55.571Z,102429.31
2022-12-18T11:30:26.553Z,102418.94
2022-12-18T11:33:01.830Z,102410.41
2022-12-18T11:35:40.507Z,102400.16
2022-12-18T11:38:19.593Z,102393.34
2022-12-18T11:40:56.301Z,102392.47
2022-12-18T11:43:30.098Z,102401.97
2022-12-18T11:46:03.784Z,102399.50
2022-12-18T11:48:36.463Z,102395.25
2022-12-18T11:51:07.703Z,102408.13
2022-12-18T11:53:39.162Z,102398.75
2022-12-18T11:56:28.475Z,102399.59
2022-12-18T11:59:07.396Z,102390.13
2022-12-18T12:01:47.757Z,102391.03
2022-12-18T12:04:46.999Z,102376.47
2022-12-18T12:07:25.860Z,102366.16
2022-12-18T12:10:06.231Z,102365.31
2022-12-18T12:12:48.941Z,102360.16
2022-12-18T12:15:28.134Z,102355.06
2022-12-18T12:18:09.660Z,102348.16
2022-12-18T12:20:51.622Z,102353.34
2022-12-18T12:23:31.683Z,102343.03
2022-12-18T12:26:05.086Z,102336.16
2022-12-18T12:28:59.487Z,102342.19
2022-12-18T12:31:41.001Z,102346.56
2022-12-18T12:34:19.236Z,102356.94
2022-12-18T12:37:08.998Z,102343.16
2022-12-18T12:39:40.349Z,102333.69
2022-12-18T12:42:35.208Z,102331.13
2022-12-18T12:45:08.908Z,102329.41
2022-12-18T12:47:43.849Z,102319.97
2022-12-18T12:50:18.745Z,102318.22
2022-12-18T12:52:50.282Z,102315.63
2022-12-18T12:55:22.465Z,102309.63
2022-12-18T12:58:00.171Z,102307.94
2022-12-18T13:00:36.152Z,102300.19
2022-12-18T13:03:17.750Z,102289.84
2022-12-18T13:05:52.110Z,102290.69
2022-12-18T13:08:26.714Z,102292.44
2022-12-18T13:11:19.012Z,102298.50
2022-12-18T13:13:51.855Z,102287.34
2022-12-18T13:16:24.511Z,102283.00
2022-12-18T13:18:55.361Z,102287.34
2022-12-18T13:21:28.232Z,102280.47
2022-12-18T13:23:56.736Z,102273.56
2022-12-18T13:26:35.266Z,102269.25
2022-12-18T13:29:07.450Z,102267.50
2022-12-18T13:32:03.164Z,102267.56
2022-12-18T13:34:33.656Z,102277.00
2022-12-18T13:37:35.741Z,102276.16
2022-12-18T13:40:04.531Z,102271.00
2022-12-18T13:43:00.418Z,102273.56
2022-12-18T13:45:40.974Z,102267.50
2022-12-18T13:48:18.380Z,102264.97
2022-12-18T13:50:54.145Z,102271.00
2022-12-18T13:53:25.764Z,102264.06
2022-12-18T13:55:56.509Z,102255.47
2022-12-18T13:58:24.809Z,102257.22
2022-12-18T14:00:53.096Z,102258.13
2022-12-18T14:03:24.882Z,102246.88
2022-12-18T14:06:02.494Z,102240.03
2022-12-18T14:08:36.142Z,102230.53
2022-12-18T14:11:06.597Z,102235.72
2022-12-18T14:13:39.697Z,102238.34
2022-12-18T14:16:09.062Z,102235.72
2022-12-18T14:18:45.337Z,102237.44
2022-12-18T14:21:23.740Z,102239.19
2022-12-18T14:24:04.727Z,102230.53
2022-12-18T14:26:34.523Z,102237.47
2022-12-18T14:29:19.766Z,102219.38
2022-12-18T14:32:08.433Z,102213.34
2022-12-18T14:34:40.464Z,102207.31
2022-12-18T14:37:12.171Z,102217.63
2022-12-18T14:39:40.261Z,102210.75
2022-12-18T14:42:12.326Z,102204.72
2022-12-18T14:45:05.135Z,102197.81
2022-12-18T14:47:28.422Z,102189.19
2022-12-18T14:49:56.537Z,102190.06
2022-12-18T14:52:34.017Z,102189.19
2022-12-18T14:55:02.044Z,102172.84
2022-12-18T14:57:38.905Z,102176.31
2022-12-18T15:00:08.698Z,102175.44
2022-12-18T15:02:38.471Z,102191.81
2022-12-18T15:05:20.022Z,102183.19
2022-12-18T15:07:51.245Z,102184.91
2022-12-18T15:10:22.147Z,102177.16
2022-12-18T15:12:52.062Z,102180.56
2022-12-18T15:15:48.983Z,102171.97
2022-12-18T15:18:20.620Z,102175.38
2022-12-18T15:20:51.256Z,102182.28
2022-12-18T15:23:26.457Z,102174.53
2022-12-18T15:25:58.587Z,102159.88
2022-12-18T15:28:29.825Z,102159.88
2022-12-18T15:31:07.416Z,102152.97
2022-12-18T15:33:38.649Z,102165.00
2022-12-18T15:36:10.952Z,102170.22
2022-12-18T15:38:40.924Z,102162.47
2022-12-18T15:41:18.865Z,102171.91
2022-12-18T15:43:50.276Z,102166.75
2022-12-18T15:46:20.643Z,102149.56
2022-12-18T15:48:50.351Z,102156.44
2022-12-18T15:51:21.061Z,102161.63
2022-12-18T15:53:52.483Z,102164.19
2022-12-18T15:56:38.578Z,102175.38
2022-12-18T15:59:10.971Z,102166.75
2022-12-18T16:01:42.537Z,102165.06
2022-12-18T16:04:13.848Z,102171.06
2022-12-18T16:07:05.631Z,102168.44
2022-12-18T16:09:31.810Z,102174.50
2022-12-18T16:12:02.729Z,102172.75
2022-12-18T16:14:32.572Z,102176.19
2022-12-18T16:17:03.026Z,102165.00
2022-12-18T16:19:31.217Z,102158.13
2022-12-18T16:22:00.216Z,102159.00
2022-12-18T16:24:30.218Z,102149.50
2022-12-18T16:27:01.256Z,102138.28
2022-12-18T16:29:31.090Z,102125.38
2022-12-18T16:32:02.966Z,102124.56
2022-12-18T16:34:35.625Z,102117.63
2022-12-18T16:37:06.537Z,102124.50
2022-12-18T16:39:35.424Z,102124.50
2022-12-18T16:42:06.949Z,102108.19
2022-12-18T16:44:35.089Z,102107.31
2022-12-18T16:47:04.087Z,102115.91
2022-12-18T16:49:32.310Z,102094.34
2022-12-18T16:52:00.270Z,102092.63
2022-12-18T16:54:31.147Z,102098.66
2022-12-18T16:56:59.286Z,102108.09
2022-12-18T16:59:29.309Z,102099.47
2022-12-18T17:01:58.411Z,102089.16
2022-12-18T17:04:26.692Z,102086.59
2022-12-18T17:06:54.768Z,102084.88
2022-12-18T17:09:25.198Z,102092.63
2022-12-18T17:11:53.973Z,102086.59
2022-12-18T17:14:24.250Z,102080.59
2022-12-18T17:17:19.879Z,102082.31
2022-12-18T17:19:42.610Z,102087.44
2022-12-18T17:22:10.678Z,102083.16
2022-12-18T17:24:38.655Z,102078.00
2022-12-18T17:27:07.541Z,102080.59
2022-12-18T17:29:35.886Z,102084.91
2022-12-18T17:32:05.875Z,102081.44
2022-12-18T17:34:33.873Z,102089.19
2022-12-18T17:37:01.937Z,102090.06
2022-12-18T17:39:30.798Z,102091.78
2022-12-18T17:41:59.929Z,102097.78
2022-12-18T17:44:27.970Z,102082.28
2022-12-18T17:46:56.413Z,102082.28
2022-12-18T17:49:25.971Z,102082.28
2022-12-18T17:51:54.140Z,102090.91
2022-12-18T17:54:22.141Z,102077.13
2022-12-18T17:56:50.213Z,102089.16
2022-12-18T17:59:18.314Z,102096.03
2022-12-18T18:01:46.894Z,102089.13
2022-12-18T18:04:15.388Z,102093.41
2022-12-18T18:06:44.809Z,102088.25
2022-12-18T18:09:16.110Z,102083.94
2022-12-18T18:12:02.574Z,102087.41
2022-12-18T18:14:30.893Z,102091.69
2022-12-18T18:16:59.212Z,102096.00
2022-12-18T18:19:29.848Z,102097.69
2022-12-18T18:22:01.525Z,102096.00
2022-12-18T18:24:31.206Z,102091.69
2022-12-18T18:27:00.091Z,102096.00
2022-12-18T18:29:31.261Z,102096.00
2022-12-18T18:31:59.884Z,102090.78
2022-12-18T18:34:29.701Z,102081.34
2022-12-18T18:36:59.429Z,102090.78
2022-12-18T18:39:28.247Z,102089.06
2022-12-18T18:41:57.299Z,102090.84
2022-12-18T18:44:26.341Z,102090.84
2022-12-18T18:46:56.082Z,102090.84
2022-12-18T18:49:27.126Z,102085.66
2022-12-18T18:51:55.865Z,102083.94
2022-12-18T18:54:25.487Z,102070.19
2022-12-18T18:59:42.702Z,102082.19
2022-12-18T19:02:13.247Z,102082.19
2022-12-18T19:04:46.320Z,102080.50
2022-12-18T19:07:19.743Z,102071.91
2022-12-18T19:10:05.037Z,102072.81
2022-12-18T19:12:51.556Z,102062.47
2022-12-18T19:15:19.826Z,102068.50
2022-12-18T19:17:47.955Z,102070.22
2022-12-18T19:20:16.777Z,102065.91
2022-12-18T19:22:47.949Z,102059.91
2022-12-18T19:25:38.217Z,102057.31
2022-12-18T19:28:13.507Z,102053.00
2022-12-18T19:30:54.529Z,102063.31
2022-12-18T19:33:43.037Z,102056.44
2022-12-18T19:36:13.769Z,102058.16
2022-12-18T19:38:42.733Z,102056.47
2022-12-18T19:41:15.546Z,102057.31
2022-12-18T19:43:44.012Z,102046.94
2022-12-18T19:46:15.348Z,102059.03
2022-12-18T19:48:44.616Z,102063.34
2022-12-18T19:51:15.794Z,102065.91
2022-12-18T19:53:44.105Z,102067.63
2022-12-18T19:56:15.653Z,102066.78
2022-12-18T19:58:44.806Z,102062.50
2022-12-18T20:01:16.752Z,102059.03
2022-12-18T20:03:46.616Z,102051.31
2022-12-18T20:06:26.152Z,102051.31
2022-12-18T20:09:00.316Z,102046.16
2022-12-18T20:11:31.052Z,102058.19
2022-12-18T20:13:59.495Z,102053.03
2022-12-18T20:16:27.813Z,102057.38
2022-12-18T20:18:56.046Z,102053.03
2022-12-18T20:21:24.155Z,102055.66
2022-12-18T20:23:52.409Z,102050.47
2022-12-18T20:26:20.742Z,102046.16
2022-12-18T20:28:50.226Z,102041.00
2022-12-18T20:31:18.272Z,102037.53
2022-12-18T20:33:48.755Z,102035.81
2022-12-18T20:36:23.409Z,102041.00
2022-12-18T20:38:54.688Z,102045.31
2022-12-18T20:41:25.483Z,102046.16
2022-12-18T20:43:55.183Z,102058.22
2022-12-18T20:46:23.523Z,102059.94
2022-12-18T20:48:51.644Z,102061.69
2022-12-18T20:51:21.967Z,102066.84
2022-12-18T20:53:50.108Z,102063.38
2022-12-18T20:56:21.508Z,102066.81
2022-12-18T20:58:53.635Z,102061.66
2022-12-18T21:01:25.552Z,102060.81
2022-12-18T21:03:54.079Z,102057.34
2022-12-18T21:06:23.852Z,102054.75
2022-12-18T21:08:52.063Z,102050.47
2022-12-18T21:12:01.811Z,102052.22
2022-12-18T21:14:30.976Z,102046.16
2022-12-18T21:17:02.093Z,102037.53
2022-12-18T21:19:31.289Z,102039.25
2022-12-18T21:22:00.022Z,102029.78
2022-12-18T21:24:28.203Z,102028.94
2022-12-18T21:27:01.853Z,102024.63
2022-12-18T21:29:30.146Z,102020.31
2022-12-18T21:31:58.376Z,102017.72
2022-12-18T21:34:29.691Z,102022.03
2022-12-18T21:36:59.532Z,102010.88
2022-12-18T21:39:29.001Z,102015.19
2022-12-18T21:42:15.717Z,102003.97
2022-12-18T21:44:45.185Z,101996.22
2022-12-18T21:47:21.441Z,101990.22
2022-12-18T21:49:52.805Z,101990.19
2022-12-18T21:52:21.674Z,101991.94
2022-12-18T21:55:08.032Z,101979.00
2022-12-18T21:57:38.003Z,101975.56
2022-12-18T22:00:07.478Z,101965.25
2022-12-18T22:02:35.904Z,101965.22
2022-12-18T22:05:06.228Z,101960.06
2022-12-18T22:07:35.089Z,101961.81
2022-12-18T22:10:03.243Z,101962.66
2022-12-18T22:12:44.396Z,101966.97
2022-12-18T22:15:21.127Z,101959.22
2022-12-18T22:17:50.367Z,101959.22
2022-12-18T22:20:20.568Z,101954.91
2022-12-18T22:22:51.617Z,101958.38
2022-12-18T22:25:19.701Z,101953.16
2022-12-18T22:28:08.078Z,101951.47
2022-12-18T22:30:35.131Z,101948.88
2022-12-18T22:33:04.094Z,101942.00
2022-12-18T22:35:33.512Z,101932.53
2022-12-18T22:38:02.688Z,101938.56
2022-12-18T22:40:31.004Z,101931.69
2022-12-18T22:43:01.445Z,101923.91
2022-12-18T22:45:29.522Z,101910.13
2022-12-18T22:47:57.802Z,101911.88
2022-12-18T22:50:26.002Z,101906.69
2022-12-18T22:52:55.372Z,101900.66
2022-12-18T22:55:23.639Z,101897.22
2022-12-18T22:57:51.664Z,101896.34
2022-12-18T23:00:23.990Z,101886.00
2022-12-18T23:02:59.818Z,101883.44
2022-12-18T23:05:30.317Z,101876.53
2022-12-18T23:08:00.397Z,101869.66
2022-12-18T23:10:29.202Z,101872.25
2022-12-18T23:12:57.318Z,101860.16
2022-12-18T23:15:28.113Z,101848.13
2022-12-18T23:17:58.795Z,101848.16
2022-12-18T23:20:28.304Z,101844.69
2022-12-18T23:22:56.409Z,101840.38
2022-12-18T23:25:26.020Z,101831.75
2022-12-18T23:27:54.246Z,101818.84
2022-12-18T23:30:22.297Z,101810.25
2022-12-18T23:32:50.315Z,101799.88
2022-12-18T23:35:18.978Z,101799.03
2022-12-18T23:38:04.188Z,101802.47
2022-12-18T23:40:33.730Z,101798.19
2022-12-18T23:43:01.854Z,101796.47
2022-12-18T23:45:30.029Z,101792.13
2022-12-18T23:47:58.094Z,101783.53
2022-12-18T23:50:30.003Z,101777.50
2022-12-18T23:53:03.775Z,101776.63
2022-12-18T23:55:40.562Z,101786.94
2022-12-18T23:58:10.091Z,101781.78
